createdAt,value
2022-12-13T00:00:11.822Z,-8.6
2022-12-13T00:03:11.886Z,-8.6
2022-12-13T00:06:11.803Z,-8.6
2022-12-13T00:09:11.747Z,-8.6
2022-12-13T00:12:11.758Z,-8.6
2022-12-13T00:15:11.957Z,-8.6
2022-12-13T00:18:11.760Z,-8.5
2022-12-13T00:21:11.817Z,-8.5
2022-12-13T00:24:11.766Z,-8.5
2022-12-13T00:27:11.755Z,-8.5
2022-12-13T00:30:11.785Z,-8.4
2022-12-13T00:33:11.781Z,-8.5
2022-12-13T00:36:11.792Z,-8.5
2022-12-13T00:39:12.077Z,-8.5
2022-12-13T00:42:11.736Z,-8.6
2022-12-13T00:45:12.055Z,-8.6
2022-12-13T00:48:11.756Z,-8.6
2022-12-13T00:51:11.829Z,-8.8
2022-12-13T00:54:11.768Z,-8.8
2022-12-13T00:57:11.781Z,-8.9
2022-12-13T01:00:11.781Z,-8.9
2022-12-13T01:03:12.071Z,-8.9
2022-12-13T01:06:28.130Z,-8.9
2022-12-13T01:09:11.829Z,-8.9
2022-12-13T01:12:11.795Z,-8.9
2022-12-13T01:15:11.911Z,-8.9
2022-12-13T01:18:11.747Z,-8.9
2022-12-13T01:21:11.814Z,-8.9
2022-12-13T01:24:11.815Z,-8.8
2022-12-13T01:27:11.765Z,-8.8
2022-12-13T01:30:11.802Z,-8.8
2022-12-13T01:33:23.323Z,-8.8
2022-12-13T01:36:12.239Z,-8.9
2022-12-13T01:39:28.892Z,-8.9
2022-12-13T01:42:11.933Z,-8.9
2022-12-13T01:45:11.778Z,-8.9
2022-12-13T01:48:11.739Z,-8.9
2022-12-13T01:51:11.838Z,-8.8
2022-12-13T01:54:11.802Z,-8.8
2022-12-13T01:57:12.325Z,-8.8
2022-12-13T02:00:11.872Z,-8.8
2022-12-13T02:03:23.407Z,-8.8
2022-12-13T02:06:11.931Z,-8.8
2022-12-13T02:09:11.813Z,-8.8
2022-12-13T02:12:11.739Z,-8.6
2022-12-13T02:15:12.660Z,-8.6
2022-12-13T02:18:11.809Z,-8.5
2022-12-13T02:21:11.777Z,-8.5
2022-12-13T02:24:19.809Z,-8.5
2022-12-13T02:27:12.323Z,-8.4
2022-12-13T02:30:11.947Z,-8.4
2022-12-13T02:33:11.806Z,-8.4
2022-12-13T02:36:11.725Z,-8.5
2022-12-13T02:39:11.817Z,-8.5
2022-12-13T02:42:26.014Z,-8.5
2022-12-13T02:45:15.790Z,-8.6
2022-12-13T02:48:11.774Z,-8.6
2022-12-13T02:51:11.735Z,-8.8
2022-12-13T02:54:11.789Z,-8.8
2022-12-13T02:57:11.721Z,-8.8
2022-12-13T03:00:11.780Z,-8.9
2022-12-13T03:03:13.082Z,-8.9
2022-12-13T03:06:11.760Z,-9
2022-12-13T03:09:11.965Z,-9
2022-12-13T03:12:11.777Z,-9
2022-12-13T03:15:12.047Z,-9
2022-12-13T03:18:11.849Z,-9.1
2022-12-13T03:21:11.684Z,-9.1
2022-12-13T03:24:11.742Z,-9.1
2022-12-13T03:27:11.789Z,-9.1
2022-12-13T03:30:11.756Z,-9.1
2022-12-13T03:33:11.884Z,-9.1
2022-12-13T03:36:11.744Z,-9.3
2022-12-13T03:39:11.714Z,-9.1
2022-12-13T03:42:11.773Z,-9.1
2022-12-13T03:45:11.978Z,-9
2022-12-13T03:48:11.743Z,-8.9
2022-12-13T03:51:11.746Z,-8.9
2022-12-13T03:54:11.760Z,-8.9
2022-12-13T03:57:11.747Z,-8.9
2022-12-13T04:00:11.838Z,-8.9
2022-12-13T04:03:12.122Z,-8.8
2022-12-13T04:06:11.776Z,-8.8
2022-12-13T04:09:11.761Z,-8.6
2022-12-13T04:12:11.739Z,-8.6
2022-12-13T04:15:11.751Z,-8.5
2022-12-13T04:18:11.769Z,-8.5
2022-12-13T04:21:11.775Z,-8.4
2022-12-13T04:24:12.468Z,-8.1
2022-12-13T04:27:12.098Z,-8.1
2022-12-13T04:30:11.813Z,-8
2022-12-13T04:33:11.695Z,-8
2022-12-13T04:36:11.719Z,-8
2022-12-13T04:39:38.607Z,-8.1
2022-12-13T04:42:11.781Z,-8.3
2022-12-13T04:45:12.119Z,-8.4
2022-12-13T04:48:11.788Z,-8.4
2022-12-13T04:51:12.669Z,-8.5
2022-12-13T04:54:44.331Z,-8.5
2022-12-13T04:57:12.812Z,-8.6
2022-12-13T05:00:11.873Z,-8.6
2022-12-13T05:03:11.699Z,-8.6
2022-12-13T05:06:31.635Z,-8.6
2022-12-13T05:09:20.179Z,-8.6
2022-12-13T05:12:31.520Z,-8.6
2022-12-13T05:15:11.788Z,-8.6
2022-12-13T05:18:20.719Z,-8.6
2022-12-13T05:21:11.726Z,-8.6
2022-12-13T05:24:11.850Z,-8.6
2022-12-13T05:27:33.588Z,-8.5
2022-12-13T05:30:16.305Z,-8.5
2022-12-13T05:33:11.722Z,-8.4
2022-12-13T05:36:13.491Z,-8.4
2022-12-13T05:39:34.790Z,-8.4
2022-12-13T05:42:13.873Z,-8.5
2022-12-13T05:45:11.735Z,-8.5
2022-12-13T05:48:11.752Z,-8.5
2022-12-13T05:51:23.103Z,-8.5
2022-12-13T05:54:11.823Z,-8.5
2022-12-13T05:57:11.691Z,-8.4
2022-12-13T06:00:34.521Z,-8.5
2022-12-13T06:03:13.887Z,-8.5
2022-12-13T06:06:11.761Z,-8.5
2022-12-13T06:09:12.193Z,-8.5
2022-12-13T06:12:47.802Z,-8.5
2022-12-13T06:15:51.222Z,-8.5
2022-12-13T06:18:11.820Z,-8.6
2022-12-13T06:21:11.724Z,-8.6
2022-12-13T06:24:11.783Z,-8.8
2022-12-13T06:27:11.713Z,-8.6
2022-12-13T06:30:14.165Z,-8.6
2022-12-13T06:33:15.448Z,-8.6
2022-12-13T06:36:11.846Z,-8.6
2022-12-13T06:39:11.745Z,-8.5
2022-12-13T06:42:11.743Z,-8.5
2022-12-13T06:45:11.743Z,-8.5
2022-12-13T06:48:13.422Z,-8.4
2022-12-13T06:51:11.762Z,-8.3
2022-12-13T06:54:12.162Z,-8.3
2022-12-13T06:57:11.682Z,-8.3
2022-12-13T07:00:11.887Z,-8.3
2022-12-13T07:03:12.081Z,-8.3
2022-12-13T07:06:11.832Z,-8.3
2022-12-13T07:09:11.820Z,-8.3
2022-12-13T07:12:14.312Z,-8.1
2022-12-13T07:15:11.738Z,-8.1
2022-12-13T07:18:11.785Z,-8.1
2022-12-13T07:21:23.909Z,-8.1
2022-12-13T07:24:11.855Z,-8.1
2022-12-13T07:27:11.776Z,-8.1
2022-12-13T07:30:12.008Z,-8.1
2022-12-13T07:33:11.792Z,-7.9
2022-12-13T07:36:11.871Z,-7.9
2022-12-13T07:39:11.838Z,-7.8
2022-12-13T07:42:11.810Z,-7.8
2022-12-13T07:45:15.050Z,-7.6
2022-12-13T07:48:11.934Z,-7.6
2022-12-13T07:51:11.789Z,-7.6
2022-12-13T07:54:17.641Z,-7.5
2022-12-13T07:57:15.756Z,-7.3
2022-12-13T08:00:12.034Z,-7.1
2022-12-13T08:03:27.324Z,-6.9
2022-12-13T08:06:12.753Z,-6.8
2022-12-13T08:09:11.831Z,-6.5
2022-12-13T08:12:12.486Z,-6.5
2022-12-13T08:15:18.701Z,-6.3
2022-12-13T08:18:11.922Z,-6.1
2022-12-13T08:22:01.913Z,-6
2022-12-13T08:24:20.053Z,-5.8
2022-12-13T08:27:12.267Z,-5.6
2022-12-13T08:30:11.946Z,-5.5
2022-12-13T08:33:16.507Z,-5.4
2022-12-13T08:36:11.870Z,-5.1
2022-12-13T08:39:11.844Z,-4.9
2022-12-13T08:42:28.522Z,-4.6
2022-12-13T08:45:11.758Z,-4.3
2022-12-13T08:48:11.877Z,-3.9
2022-12-13T08:51:11.932Z,-3.5
2022-12-13T08:54:40.282Z,-3.3
2022-12-13T08:57:11.817Z,-3
2022-12-13T09:00:11.842Z,-3
2022-12-13T09:03:23.069Z,-3
2022-12-13T09:06:12.528Z,-2.9
2022-12-13T09:09:14.892Z,-2.9
2022-12-13T09:12:45.935Z,-2.6
2022-12-13T09:15:38.690Z,-2.6
2022-12-13T09:18:40.811Z,-2.3
2022-12-13T09:21:47.590Z,-2
2022-12-13T09:24:40.567Z,-0.8
2022-12-13T09:27:42.327Z,0.1
2022-12-13T09:30:11.824Z,-0.1
2022-12-13T09:33:50.236Z,0.2
2022-12-13T09:36:12.890Z,0.4
2022-12-13T09:39:11.811Z,-0.9
2022-12-13T09:42:34.839Z,-0.4
2022-12-13T09:45:47.531Z,0.3
2022-12-13T09:48:34.490Z,1.6
2022-12-13T09:54:11.780Z,5
2022-12-13T09:57:11.807Z,6.5
2022-12-13T10:00:13.294Z,7.6
2022-12-13T10:03:11.832Z,8.6
2022-12-13T10:06:11.931Z,9.3
2022-12-13T10:09:11.840Z,9.8
2022-12-13T10:12:11.792Z,10.3
2022-12-13T10:15:11.859Z,10.9
2022-12-13T10:18:11.865Z,11.4
2022-12-13T10:21:12.082Z,11.8
2022-12-13T10:24:47.476Z,12.1
2022-12-13T10:27:12.726Z,12.5
2022-12-13T10:30:11.989Z,12.6
2022-12-13T10:33:12.029Z,12.6
2022-12-13T10:36:11.780Z,12.6
2022-12-13T10:39:11.824Z,13
2022-12-13T10:42:11.782Z,13.1
2022-12-13T10:45:11.817Z,13.3
2022-12-13T10:48:15.554Z,13.5
2022-12-13T10:51:12.702Z,13.6
2022-12-13T10:54:11.896Z,14
2022-12-13T10:57:11.847Z,14
2022-12-13T11:00:22.243Z,14.1
2022-12-13T11:03:11.850Z,14.3
2022-12-13T11:06:11.932Z,14.4
2022-12-13T11:09:29.228Z,14.5
2022-12-13T11:12:11.782Z,14.5
2022-12-13T11:15:11.767Z,14.6
2022-12-13T11:18:11.900Z,14.6
2022-12-13T11:21:11.759Z,14.6
2022-12-13T11:24:13.333Z,14.7
2022-12-13T11:27:11.796Z,14.9
2022-12-13T11:30:11.846Z,15
2022-12-13T11:33:11.913Z,15
2022-12-13T11:36:11.964Z,15.1
2022-12-13T11:39:11.816Z,15.3
2022-12-13T11:42:11.915Z,15.3
2022-12-13T11:45:11.792Z,15.3
2022-12-13T11:48:11.935Z,15.3
2022-12-13T11:51:11.852Z,15.4
2022-12-13T11:54:11.891Z,15.5
2022-12-13T11:57:12.410Z,15.6
2022-12-13T12:00:40.189Z,13.6
2022-12-13T12:03:12.724Z,9.5
2022-12-13T12:06:11.783Z,7.1
2022-12-13T12:09:11.837Z,5.4
2022-12-13T12:12:11.809Z,4
2022-12-13T12:15:43.808Z,3
2022-12-13T12:18:11.810Z,2.2
2022-12-13T12:21:11.857Z,1.8
2022-12-13T12:24:11.796Z,1.4
2022-12-13T12:27:11.861Z,1.1
2022-12-13T12:30:11.844Z,0.9
2022-12-13T12:33:13.739Z,0.6
2022-12-13T12:36:11.868Z,0.5
2022-12-13T12:39:11.820Z,0.4
2022-12-13T12:42:11.849Z,0.4
2022-12-13T12:45:54.985Z,0.3
2022-12-13T12:51:11.810Z,0.1
2022-12-13T12:54:11.886Z,0.1
2022-12-13T12:57:11.962Z,0.1
2022-12-13T13:00:13.601Z,0
2022-12-13T13:03:28.923Z,0
2022-12-13T13:06:14.147Z,-0.1
2022-12-13T13:09:11.809Z,-0.1
2022-12-13T13:12:47.373Z,-0.1
2022-12-13T13:15:11.821Z,-0.1
2022-12-13T13:18:13.367Z,-0.1
2022-12-13T13:21:11.942Z,-0.3
2022-12-13T13:24:11.897Z,-0.1
2022-12-13T13:27:11.794Z,0
2022-12-13T13:30:12.008Z,0.1
2022-12-13T13:33:15.682Z,0
2022-12-13T13:36:11.885Z,-0.1
2022-12-13T13:39:13.114Z,-0.1
2022-12-13T13:42:11.935Z,-0.3
2022-12-13T13:45:11.814Z,-0.3
2022-12-13T13:48:23.458Z,-0.4
2022-12-13T13:51:11.905Z,-0.4
2022-12-13T13:54:11.862Z,1.3
2022-12-13T13:57:11.797Z,3.5
2022-12-13T14:00:12.092Z,4.9
2022-12-13T14:03:38.574Z,5.6
2022-12-13T14:06:11.916Z,6.1
2022-12-13T14:09:11.828Z,6.4
2022-12-13T14:12:11.943Z,6.4
2022-12-13T14:15:12.824Z,6.4
2022-12-13T14:18:11.809Z,5.9
2022-12-13T14:21:11.763Z,5.6
2022-12-13T14:24:11.742Z,4.5
2022-12-13T14:27:11.933Z,2.7
2022-12-13T14:30:36.260Z,1.6
2022-12-13T14:33:11.772Z,0.6
2022-12-13T14:36:11.911Z,-0.3
2022-12-13T14:39:29.454Z,-0.8
2022-12-13T14:42:11.889Z,-1.3
2022-12-13T14:45:11.830Z,0.2
2022-12-13T14:48:11.803Z,-0.1
2022-12-13T14:51:11.813Z,-0.4
2022-12-13T14:54:11.936Z,-0.8
2022-12-13T14:57:11.854Z,-1
2022-12-13T15:00:18.872Z,-1.3
2022-12-13T15:03:11.862Z,-1.5
2022-12-13T15:06:11.870Z,-1.8
2022-12-13T15:09:11.779Z,-1.9
2022-12-13T15:12:36.064Z,-2
2022-12-13T15:15:11.825Z,-2.3
2022-12-13T15:18:11.834Z,-2.4
2022-12-13T15:21:18.848Z,-2.6
2022-12-13T15:24:11.772Z,-2.6
2022-12-13T15:27:13.615Z,-2.8
2022-12-13T15:30:11.949Z,-2.9
2022-12-13T15:33:11.878Z,-3
2022-12-13T15:36:11.818Z,-3.1
2022-12-13T15:39:18.538Z,-3.3
2022-12-13T15:42:11.717Z,-3.4
2022-12-13T15:45:11.811Z,-3.4
2022-12-13T15:48:11.819Z,-3.4
2022-12-13T15:51:11.768Z,-3.4
2022-12-13T15:54:11.847Z,-3.5
2022-12-13T15:57:11.779Z,-3.5
2022-12-13T16:00:11.999Z,-3.6
2022-12-13T16:03:20.411Z,-3.6
2022-12-13T16:06:11.806Z,-3.8
2022-12-13T16:09:11.764Z,-3.8
2022-12-13T16:12:11.793Z,-3.9
2022-12-13T16:15:35.213Z,-4
2022-12-13T16:18:11.697Z,-4
2022-12-13T16:21:11.709Z,-4.1
2022-12-13T16:24:11.737Z,-4.3
2022-12-13T16:27:19.341Z,-4.4
2022-12-13T16:30:11.882Z,-4.5
2022-12-13T16:33:39.737Z,-4.5
2022-12-13T16:36:11.662Z,-4.6
2022-12-13T16:39:11.729Z,-4.8
2022-12-13T16:42:11.736Z,-4.8
2022-12-13T16:45:53.860Z,-4.9
2022-12-13T16:48:12.066Z,-5
2022-12-13T16:51:11.709Z,-5.1
2022-12-13T16:54:11.766Z,-5.3
2022-12-13T16:57:11.755Z,-5.4
2022-12-13T17:00:11.814Z,-5.4
2022-12-13T17:03:11.678Z,-5.5
2022-12-13T17:06:11.826Z,-5.5
2022-12-13T17:09:11.710Z,-5.6
2022-12-13T17:12:11.751Z,-5.8
2022-12-13T17:15:11.761Z,-5.8
2022-12-13T17:18:13.907Z,-5.9
2022-12-13T17:21:11.795Z,-5.9
2022-12-13T17:24:11.836Z,-5.8
2022-12-13T17:27:11.740Z,-5.8
2022-12-13T17:30:11.743Z,-5.8
2022-12-13T17:33:11.722Z,-5.8
2022-12-13T17:36:11.720Z,-5.8
2022-12-13T17:39:11.800Z,-5.6
2022-12-13T17:42:11.706Z,-5.6
2022-12-13T17:45:11.780Z,-5.6
2022-12-13T17:48:11.770Z,-5.5
2022-12-13T17:51:11.750Z,-5.5
2022-12-13T17:54:11.712Z,-5.5
2022-12-13T17:57:11.733Z,-5.5
2022-12-13T18:00:11.886Z,-5.5
2022-12-13T18:03:12.103Z,-5.5
2022-12-13T18:06:11.778Z,-5.5
2022-12-13T18:09:11.827Z,-5.5
2022-12-13T18:12:11.768Z,-5.6
2022-12-13T18:15:11.805Z,-5.6
2022-12-13T18:18:23.770Z,-5.6
2022-12-13T18:21:11.830Z,-5.8
2022-12-13T18:24:11.797Z,-5.8
2022-12-13T18:27:11.757Z,-5.8
2022-12-13T18:30:12.361Z,-5.6
2022-12-13T18:33:11.815Z,-5.8
2022-12-13T18:36:11.834Z,-5.8
2022-12-13T18:39:11.781Z,-5.6
2022-12-13T18:42:11.782Z,-5.6
2022-12-13T18:45:11.833Z,-5.6
2022-12-13T18:48:11.789Z,-5.6
2022-12-13T18:51:12.021Z,-5.8
2022-12-13T18:54:11.830Z,-5.8
2022-12-13T18:57:11.738Z,-5.8
2022-12-13T19:00:11.984Z,-5.8
2022-12-13T19:03:12.254Z,-5.8
2022-12-13T19:06:11.783Z,-5.8
2022-12-13T19:09:11.815Z,-5.8
2022-12-13T19:12:11.749Z,-5.8
2022-12-13T19:15:11.816Z,-5.8
2022-12-13T19:18:11.853Z,-5.8
2022-12-13T19:21:11.757Z,-5.8
2022-12-13T19:24:16.119Z,-5.9
2022-12-13T19:27:11.956Z,-6
2022-12-13T19:30:11.764Z,-6
2022-12-13T19:33:11.805Z,-6
2022-12-13T19:36:11.784Z,-6
2022-12-13T19:39:11.809Z,-6
2022-12-13T19:42:11.713Z,-6
2022-12-13T19:45:11.779Z,-6
2022-12-13T19:48:11.792Z,-6
2022-12-13T19:51:11.743Z,-6
2022-12-13T19:54:11.732Z,-6
2022-12-13T19:57:18.527Z,-6
2022-12-13T20:00:11.816Z,-6
2022-12-13T20:03:12.183Z,-6
2022-12-13T20:06:11.769Z,-6.1
2022-12-13T20:09:11.762Z,-6
2022-12-13T20:12:11.757Z,-6
2022-12-13T20:15:11.742Z,-6
2022-12-13T20:18:11.781Z,-6.1
2022-12-13T20:21:24.844Z,-6.1
2022-12-13T20:24:11.740Z,-6.3
2022-12-13T20:27:11.863Z,-6.3
2022-12-13T20:30:11.691Z,-6.4
2022-12-13T20:33:11.795Z,-6.4
2022-12-13T20:36:36.703Z,-6.4
2022-12-13T20:39:11.820Z,-6.4
2022-12-13T20:42:11.721Z,-6.4
2022-12-13T20:45:11.770Z,-6.4
2022-12-13T20:48:11.798Z,-6.4
2022-12-13T20:51:11.759Z,-6.3
2022-12-13T20:54:11.734Z,-6.3
2022-12-13T20:57:11.783Z,-6.3
2022-12-13T21:00:11.964Z,-6.4
2022-12-13T21:03:11.739Z,-6.4
2022-12-13T21:06:11.812Z,-6.4
2022-12-13T21:09:11.951Z,-6.4
2022-12-13T21:12:11.832Z,-6.4
2022-12-13T21:15:11.705Z,-6.3
2022-12-13T21:18:11.717Z,-6.1
2022-12-13T21:21:11.757Z,-6.1
2022-12-13T21:24:11.739Z,-6
2022-12-13T21:27:11.711Z,-5.9
2022-12-13T21:30:11.799Z,-5.8
2022-12-13T21:33:11.743Z,-5.8
2022-12-13T21:36:11.726Z,-5.6
2022-12-13T21:39:11.717Z,-5.6
2022-12-13T21:42:11.706Z,-5.6
2022-12-13T21:45:13.776Z,-5.6
2022-12-13T21:48:11.819Z,-5.6
2022-12-13T21:51:11.681Z,-5.8
2022-12-13T21:54:11.771Z,-5.8
2022-12-13T21:57:11.746Z,-5.8
2022-12-13T22:00:11.829Z,-5.8
2022-12-13T22:03:11.720Z,-5.8
2022-12-13T22:06:11.792Z,-5.9
2022-12-13T22:09:12.396Z,-5.8
2022-12-13T22:12:11.728Z,-5.8
2022-12-13T22:15:11.735Z,-5.8
2022-12-13T22:18:11.757Z,-5.8
2022-12-13T22:21:11.674Z,-5.9
2022-12-13T22:24:11.835Z,-5.9
2022-12-13T22:27:11.665Z,-5.9
2022-12-13T22:30:11.778Z,-5.9
2022-12-13T22:33:11.761Z,-5.9
2022-12-13T22:36:11.760Z,-5.9
2022-12-13T22:39:11.705Z,-6
2022-12-13T22:42:11.802Z,-6
2022-12-13T22:45:11.845Z,-5.9
2022-12-13T22:48:11.792Z,-5.9
2022-12-13T22:51:11.733Z,-5.9
2022-12-13T22:54:11.683Z,-5.8
2022-12-13T22:57:11.730Z,-5.8
2022-12-13T23:00:12.267Z,-5.8
2022-12-13T23:03:12.100Z,-5.8
2022-12-13T23:06:11.673Z,-5.8
2022-12-13T23:09:11.762Z,-5.8
2022-12-13T23:12:11.765Z,-5.8
2022-12-13T23:15:11.887Z,-5.8
2022-12-13T23:18:11.753Z,-5.8
2022-12-13T23:21:11.744Z,-5.6
2022-12-13T23:24:11.686Z,-5.6
2022-12-13T23:27:11.728Z,-5.6
2022-12-13T23:30:11.825Z,-5.5
2022-12-13T23:33:11.705Z,-5.5
2022-12-13T23:36:20.597Z,-5.4
2022-12-13T23:39:11.732Z,-5.4
2022-12-13T23:42:11.804Z,-5.4
2022-12-13T23:45:11.773Z,-5.4
2022-12-13T23:48:11.690Z,-5.3
2022-12-13T23:51:11.830Z,-5.4
2022-12-13T23:54:11.757Z,-5.4
2022-12-13T23:57:11.812Z,-5.3
